createdAt,value
2023-03-10T00:00:06.297Z,25.60
2023-03-10T00:05:12.751Z,19.50
2023-03-10T00:10:17.909Z,18.10
2023-03-10T00:15:23.543Z,15.20
2023-03-10T00:20:28.365Z,14.55
2023-03-10T00:25:32.481Z,11.77
2023-03-10T00:30:37.997Z,10.73
2023-03-10T00:35:42.215Z,7.63
2023-03-10T00:40:46.741Z,8.02
2023-03-10T00:45:52.362Z,7.03
2023-03-10T00:50:57.382Z,5.05
2023-03-10T00:56:04.155Z,5.80
2023-03-10T01:01:16.117Z,4.50
2023-03-10T01:06:21.403Z,4.70
2023-03-10T01:11:27.672Z,5.20
2023-03-10T01:16:33.501Z,3.92
2023-03-10T01:21:39.825Z,4.22
2023-03-10T01:26:45.674Z,3.65
2023-03-10T01:31:51.657Z,4.22
2023-03-10T01:36:55.943Z,3.80
2023-03-10T01:42:03.935Z,4.55
2023-03-10T01:47:13.689Z,4.97
2023-03-10T01:52:21.520Z,4.00
2023-03-10T01:57:29.831Z,3.40
2023-03-10T02:02:38.026Z,3.67
2023-03-10T02:07:44.679Z,3.65
2023-03-10T02:12:48.980Z,3.25
2023-03-10T02:17:55.164Z,3.80
2023-03-10T02:22:59.646Z,3.15
2023-03-10T02:28:06.170Z,3.90
2023-03-10T02:33:15.352Z,4.07
2023-03-10T02:38:21.090Z,2.70
2023-03-10T02:43:29.204Z,3.03
2023-03-10T02:48:41.807Z,3.95
2023-03-10T02:53:51.656Z,3.58
2023-03-10T02:58:57.282Z,3.65
2023-03-10T03:04:02.497Z,2.80
2023-03-10T03:09:07.016Z,3.03
2023-03-10T03:14:13.579Z,3.05
2023-03-10T03:19:17.810Z,2.83
2023-03-10T03:24:22.357Z,2.80
2023-03-10T03:29:28.347Z,2.20
2023-03-10T03:34:32.849Z,2.60
2023-03-10T03:39:40.361Z,2.75
2023-03-10T03:44:47.856Z,3.17
2023-03-10T03:49:52.405Z,3.50
2023-03-10T03:54:56.996Z,3.70
2023-03-10T04:00:04.048Z,3.50
2023-03-10T04:05:16.568Z,4.05
2023-03-10T04:10:23.817Z,3.25
2023-03-10T04:15:30.344Z,3.75
2023-03-10T04:20:35.916Z,6.72
2023-03-10T04:25:43.418Z,6.20
2023-03-10T04:30:50.540Z,7.93
2023-03-10T04:35:58.480Z,7.63
2023-03-10T04:41:03.244Z,9.18
2023-03-10T04:46:12.795Z,8.25
2023-03-10T04:51:18.433Z,8.88
2023-03-10T04:56:26.242Z,9.38
2023-03-10T05:01:33.416Z,11.57
2023-03-10T05:06:41.328Z,14.07
2023-03-10T05:11:57.190Z,11.52
2023-03-10T05:17:05.202Z,10.80
2023-03-10T05:22:11.721Z,10.27
2023-03-10T05:27:18.834Z,8.52
2023-03-10T05:32:26.145Z,8.75
2023-03-10T05:37:30.706Z,7.82
2023-03-10T05:42:35.947Z,8.80
2023-03-10T05:47:42.154Z,8.73
2023-03-10T05:52:47.299Z,7.18
2023-03-10T05:57:52.612Z,7.72
2023-03-10T06:02:58.283Z,7.10
2023-03-10T06:08:02.581Z,7.47
2023-03-10T06:13:06.956Z,5.88
2023-03-10T06:18:12.724Z,5.25
2023-03-10T06:23:18.149Z,6.10
2023-03-10T06:28:22.306Z,6.93
2023-03-10T06:33:29.345Z,6.20
2023-03-10T06:38:33.627Z,7.47
2023-03-10T06:43:38.371Z,8.55
2023-03-10T06:48:45.552Z,8.23
2023-03-10T06:53:50.544Z,5.78
2023-03-10T06:58:55.096Z,6.35
2023-03-10T07:04:01.856Z,5.15
2023-03-10T07:09:07.304Z,5.82
2023-03-10T07:14:11.626Z,5.03
2023-03-10T07:19:17.539Z,5.07
2023-03-10T07:24:22.155Z,4.65
2023-03-10T07:29:26.721Z,4.25
2023-03-10T07:34:32.580Z,3.72
2023-03-10T07:39:37.367Z,4.35
2023-03-10T07:44:41.484Z,3.17
2023-03-10T07:49:47.165Z,2.92
2023-03-10T07:54:51.494Z,3.10
2023-03-10T07:59:55.707Z,2.45
2023-03-10T08:05:01.612Z,2.78
2023-03-10T08:10:07.025Z,5.03
2023-03-10T08:15:13.587Z,2.85
2023-03-10T08:20:20.985Z,3.22
2023-03-10T08:25:25.549Z,2.90
2023-03-10T08:30:29.756Z,3.30
2023-03-10T08:35:35.798Z,3.45
2023-03-10T08:40:40.225Z,3.60
2023-03-10T08:45:44.553Z,3.22
2023-03-10T08:50:50.544Z,3.33
2023-03-10T08:55:54.898Z,4.40
2023-03-10T09:00:59.437Z,4.30
2023-03-10T09:06:05.726Z,3.45
2023-03-10T09:11:10.529Z,4.03
2023-03-10T09:16:14.910Z,5.80
2023-03-10T09:21:21.772Z,6.70
2023-03-10T09:26:26.537Z,3.83
2023-03-10T09:31:33.676Z,4.43
2023-03-10T09:36:39.839Z,5.88
2023-03-10T09:42:06.336Z,8.93
2023-03-10T09:47:26.391Z,4.65
2023-03-10T09:52:44.190Z,3.40
2023-03-10T09:57:51.251Z,7.50
2023-03-10T10:03:08.988Z,3.70
2023-03-10T10:08:27.317Z,2.92
2023-03-10T10:13:35.498Z,3.03
2023-03-10T10:18:43.061Z,4.00
2023-03-10T10:23:51.904Z,3.92
2023-03-10T10:28:58.619Z,3.03
2023-03-10T10:34:04.927Z,4.93
2023-03-10T10:39:28.212Z,13.13
2023-03-10T10:44:42.353Z,11.30
2023-03-10T10:49:46.915Z,8.32
2023-03-10T10:54:57.850Z,6.55
2023-03-10T11:00:21.635Z,9.48
2023-03-10T11:05:32.404Z,8.60
2023-03-10T11:10:39.610Z,7.13
2023-03-10T11:15:55.903Z,4.75
2023-03-10T11:21:08.580Z,6.22
2023-03-10T11:26:24.387Z,6.90
2023-03-10T11:31:41.460Z,5.88
2023-03-10T11:36:56.834Z,5.72
2023-03-10T11:42:10.515Z,6.32
2023-03-10T11:47:22.878Z,6.32
2023-03-10T11:52:28.814Z,9.75
2023-03-10T11:57:38.332Z,6.97
2023-03-10T12:02:49.612Z,5.15
2023-03-10T12:07:59.601Z,8.90
2023-03-10T12:18:10.103Z,5.43
2023-03-10T12:23:41.985Z,6.28
2023-03-10T12:28:47.831Z,5.70
2023-03-10T12:33:53.806Z,6.72
2023-03-10T12:39:00.771Z,5.00
2023-03-10T12:44:28.976Z,5.88
2023-03-10T12:49:38.918Z,13.48
2023-03-10T12:54:50.756Z,7.65
2023-03-10T13:00:05.106Z,4.93
2023-03-10T13:05:22.703Z,4.70
2023-03-10T13:10:30.137Z,4.90
2023-03-10T13:15:37.190Z,5.65
2023-03-10T13:20:41.587Z,4.45
2023-03-10T13:25:53.532Z,3.78
2023-03-10T13:31:19.825Z,5.05
2023-03-10T13:36:34.945Z,5.03
2023-03-10T13:41:42.300Z,6.15
2023-03-10T13:46:51.999Z,6.32
2023-03-10T13:51:58.000Z,7.75
2023-03-10T13:57:08.448Z,6.82
2023-03-10T14:02:20.192Z,12.52
2023-03-10T14:07:26.437Z,5.38
2023-03-10T14:12:38.658Z,4.82
2023-03-10T14:17:46.925Z,4.07
2023-03-10T14:22:51.285Z,6.20
2023-03-10T14:27:59.775Z,3.92
2023-03-10T14:33:13.479Z,5.82
2023-03-10T14:38:18.067Z,4.70
2023-03-10T14:43:25.611Z,6.88
2023-03-10T14:48:35.404Z,5.15
2023-03-10T14:53:40.048Z,5.13
2023-03-10T14:58:48.869Z,7.95
2023-03-10T15:03:54.659Z,8.93
2023-03-10T15:09:00.228Z,6.18
2023-03-10T15:14:04.702Z,13.15
2023-03-10T15:19:17.326Z,5.55
2023-03-10T15:24:21.680Z,5.25
2023-03-10T15:29:25.940Z,6.00
2023-03-10T15:34:31.685Z,4.65
2023-03-10T15:39:37.388Z,4.57
2023-03-10T15:44:42.270Z,4.68
2023-03-10T15:49:48.084Z,6.05
2023-03-10T15:54:52.434Z,8.90
2023-03-10T15:59:56.505Z,10.80
2023-03-10T16:05:02.362Z,10.88
2023-03-10T16:10:08.216Z,7.60
2023-03-10T16:15:14.511Z,9.95
2023-03-10T16:20:21.853Z,11.45
2023-03-10T16:25:26.298Z,15.65
2023-03-10T16:30:30.746Z,45.22
2023-03-10T16:35:39.678Z,8.70
2023-03-10T16:40:50.537Z,13.00
2023-03-10T16:45:55.047Z,7.60
2023-03-10T16:51:01.031Z,8.43
2023-03-10T16:56:06.180Z,8.70
2023-03-10T17:01:11.115Z,10.73
2023-03-10T17:06:18.838Z,10.13
2023-03-10T17:11:25.477Z,12.60
2023-03-10T17:16:32.947Z,13.55
2023-03-10T17:21:41.198Z,13.88
2023-03-10T17:26:46.394Z,14.63
2023-03-10T17:31:51.974Z,10.02
2023-03-10T17:36:58.040Z,7.38
2023-03-10T17:42:03.416Z,7.10
2023-03-10T17:47:07.800Z,6.43
2023-03-10T17:52:13.678Z,6.63
2023-03-10T17:57:18.319Z,7.20
2023-03-10T18:02:22.781Z,6.97
2023-03-10T18:07:29.705Z,7.15
2023-03-10T18:12:34.064Z,7.28
2023-03-10T18:17:38.445Z,8.13
2023-03-10T18:22:44.096Z,9.98
2023-03-10T18:27:48.810Z,6.35
2023-03-10T18:32:53.731Z,6.05
2023-03-10T18:37:59.711Z,7.47
2023-03-10T18:43:03.943Z,6.30
2023-03-10T18:48:08.800Z,7.00
2023-03-10T18:53:14.621Z,7.68
2023-03-10T18:58:18.876Z,9.90
2023-03-10T19:03:23.263Z,9.82
2023-03-10T19:08:28.990Z,10.20
2023-03-10T19:13:33.462Z,14.32
2023-03-10T19:18:38.300Z,9.07
2023-03-10T19:23:45.771Z,15.52
2023-03-10T19:28:50.172Z,21.23
2023-03-10T19:33:54.569Z,11.73
2023-03-10T19:39:00.513Z,14.05
2023-03-10T19:44:05.378Z,23.60
2023-03-10T19:49:09.760Z,11.20
2023-03-10T19:54:15.639Z,12.05
2023-03-10T19:59:19.993Z,19.33
2023-03-10T20:04:24.591Z,13.65
2023-03-10T20:09:30.241Z,12.63
2023-03-10T20:14:34.341Z,10.05
2023-03-10T20:19:38.911Z,10.30
2023-03-10T20:24:44.712Z,12.75
2023-03-10T20:29:48.981Z,11.15
2023-03-10T20:34:53.501Z,16.60
2023-03-10T20:39:59.483Z,12.15
2023-03-10T20:45:05.722Z,10.80
2023-03-10T20:50:12.029Z,9.55
2023-03-10T20:55:24.004Z,12.40
2023-03-10T21:00:31.051Z,11.63
2023-03-10T21:05:35.207Z,9.50
2023-03-10T21:10:41.204Z,11.48
2023-03-10T21:15:45.574Z,16.05
2023-03-10T21:20:49.952Z,12.73
2023-03-10T21:25:55.721Z,12.10
2023-03-10T21:31:00.201Z,10.68
2023-03-10T21:36:05.014Z,12.10
2023-03-10T21:41:11.130Z,9.75
2023-03-10T21:46:15.655Z,11.48
2023-03-10T21:51:23.199Z,9.52
2023-03-10T21:56:29.561Z,9.50
2023-03-10T22:01:34.378Z,9.43
2023-03-10T22:06:39.077Z,9.20
2023-03-10T22:11:44.722Z,9.48
2023-03-10T22:16:49.279Z,9.07
2023-03-10T22:21:53.589Z,10.07
2023-03-10T22:26:59.387Z,12.52
2023-03-10T22:32:03.718Z,13.15
2023-03-10T22:37:07.926Z,13.15
2023-03-10T22:42:13.833Z,13.02
2023-03-10T22:47:18.978Z,14.50
2023-03-10T22:52:23.360Z,13.00
2023-03-10T22:57:29.330Z,12.88
2023-03-10T23:02:37.004Z,14.30
2023-03-10T23:07:41.656Z,13.35
2023-03-10T23:12:47.256Z,14.38
2023-03-10T23:17:51.721Z,17.63
2023-03-10T23:22:57.364Z,16.20
2023-03-10T23:28:03.975Z,15.35
2023-03-10T23:33:08.938Z,16.08
2023-03-10T23:38:13.817Z,12.75
2023-03-10T23:43:20.096Z,10.55
2023-03-10T23:48:24.955Z,11.00
2023-03-10T23:53:29.904Z,10.43
2023-03-10T23:58:36.025Z,5.35
